sensor_id;sensor_type;location;lat;lon;timestamp;pressure;altitude;pressure_sealevel;temperature;humidity
63281;BME280;49406;51.044;3.766;2023-08-17T00:01:54;102014.79;;;18.92;100.00
63281;BME280;49406;51.044;3.766;2023-08-17T00:04:29;102011.05;;;18.94;100.00
63281;BME280;49406;51.044;3.766;2023-08-17T00:07:04;102009.29;;;18.94;100.00
63281;BME280;49406;51.044;3.766;2023-08-17T00:09:38;102007.59;;;18.86;100.00
63281;BME280;49406;51.044;3.766;2023-08-17T00:12:13;102013.09;;;18.85;100.00
63281;BME280;49406;51.044;3.766;2023-08-17T00:14:48;102009.11;;;18.92;100.00
63281;BME280;49406;51.044;3.766;2023-08-17T00:17:23;102013.39;;;18.91;100.00
63281;BME280;49406;51.044;3.766;2023-08-17T00:19:58;102015.10;;;18.97;100.00
63281;BME280;49406;51.044;3.766;2023-08-17T00:22:33;102020.01;;;19.06;100.00
63281;BME280;49406;51.044;3.766;2023-08-17T00:25:08;102019.51;;;19.03;100.00
63281;BME280;49406;51.044;3.766;2023-08-17T00:27:43;102022.28;;;19.09;100.00
63281;BME280;49406;51.044;3.766;2023-08-17T00:30:18;102015.02;;;19.09;100.00
63281;BME280;49406;51.044;3.766;2023-08-17T00:32:53;102019.12;;;19.06;100.00
63281;BME280;49406;51.044;3.766;2023-08-17T00:35:27;102017.18;;;19.04;100.00
63281;BME280;49406;51.044;3.766;2023-08-17T00:38:02;102017.42;;;18.98;100.00
63281;BME280;49406;51.044;3.766;2023-08-17T00:40:37;102019.07;;;18.90;100.00
63281;BME280;49406;51.044;3.766;2023-08-17T00:43:11;102021.08;;;18.81;100.00
63281;BME280;49406;51.044;3.766;2023-08-17T00:45:47;102022.34;;;18.80;100.00
63281;BME280;49406;51.044;3.766;2023-08-17T00:48:22;102020.23;;;18.78;100.00
63281;BME280;49406;51.044;3.766;2023-08-17T00:50:58;102024.35;;;18.70;100.00
63281;BME280;49406;51.044;3.766;2023-08-17T00:53:33;102018.36;;;18.64;100.00
63281;BME280;49406;51.044;3.766;2023-08-17T00:56:09;102022.25;;;18.59;100.00
63281;BME280;49406;51.044;3.766;2023-08-17T00:58:44;102018.77;;;18.53;100.00
63281;BME280;49406;51.044;3.766;2023-08-17T01:01:19;102026.54;;;18.55;100.00
63281;BME280;49406;51.044;3.766;2023-08-17T01:03:54;102022.69;;;18.49;100.00
63281;BME280;49406;51.044;3.766;2023-08-17T01:06:29;102021.29;;;18.48;100.00
63281;BME280;49406;51.044;3.766;2023-08-17T01:09:05;102023.04;;;18.45;100.00
63281;BME280;49406;51.044;3.766;2023-08-17T01:11:44;102023.05;;;18.44;100.00
63281;BME280;49406;51.044;3.766;2023-08-17T01:14:29;102021.67;;;18.40;100.00
63281;BME280;49406;51.044;3.766;2023-08-17T01:17:10;102018.48;;;18.39;100.00
63281;BME280;49406;51.044;3.766;2023-08-17T01:19:46;102014.61;;;18.35;100.00
63281;BME280;49406;51.044;3.766;2023-08-17T01:22:22;102014.28;;;18.29;100.00
63281;BME280;49406;51.044;3.766;2023-08-17T01:24:59;102011.63;;;18.29;100.00
63281;BME280;49406;51.044;3.766;2023-08-17T01:27:39;102012.52;;;18.32;100.00
63281;BME280;49406;51.044;3.766;2023-08-17T01:30:16;102008.61;;;18.33;100.00
63281;BME280;49406;51.044;3.766;2023-08-17T01:33:01;102006.84;;;18.33;100.00
63281;BME280;49406;51.044;3.766;2023-08-17T01:35:42;102014.61;;;18.36;100.00
63281;BME280;49406;51.044;3.766;2023-08-17T01:38:20;102016.38;;;18.37;100.00
63281;BME280;49406;51.044;3.766;2023-08-17T01:40:56;102016.72;;;18.38;100.00
63281;BME280;49406;51.044;3.766;2023-08-17T01:43:32;102017.90;;;18.47;100.00
63281;BME280;49406;51.044;3.766;2023-08-17T01:46:09;102015.23;;;18.51;100.00
63281;BME280;49406;51.044;3.766;2023-08-17T01:48:43;102013.42;;;18.55;100.00
63281;BME280;49406;51.044;3.766;2023-08-17T01:51:20;102016.21;;;18.61;100.00
63281;BME280;49406;51.044;3.766;2023-08-17T01:53:55;102011.45;;;18.64;100.00
63281;BME280;49406;51.044;3.766;2023-08-17T01:56:30;102012.69;;;18.64;100.00
63281;BME280;49406;51.044;3.766;2023-08-17T01:59:05;102013.22;;;18.59;100.00
63281;BME280;49406;51.044;3.766;2023-08-17T02:01:40;102009.27;;;18.40;100.00
63281;BME280;49406;51.044;3.766;2023-08-17T02:04:16;102004.44;;;18.47;100.00
63281;BME280;49406;51.044;3.766;2023-08-17T02:06:51;102004.08;;;18.51;100.00
63281;BME280;49406;51.044;3.766;2023-08-17T02:09:25;102000.37;;;18.49;100.00
63281;BME280;49406;51.044;3.766;2023-08-17T02:12:00;102001.27;;;18.50;100.00
63281;BME280;49406;51.044;3.766;2023-08-17T02:14:34;102002.85;;;18.46;100.00
63281;BME280;49406;51.044;3.766;2023-08-17T02:17:09;102002.33;;;18.43;100.00
63281;BME280;49406;51.044;3.766;2023-08-17T02:19:44;102002.69;;;18.44;100.00
63281;BME280;49406;51.044;3.766;2023-08-17T02:22:20;101996.11;;;18.50;100.00
63281;BME280;49406;51.044;3.766;2023-08-17T02:24:55;102001.06;;;18.52;100.00
63281;BME280;49406;51.044;3.766;2023-08-17T02:27:29;101998.23;;;18.53;100.00
63281;BME280;49406;51.044;3.766;2023-08-17T02:30:06;101996.95;;;18.55;100.00
63281;BME280;49406;51.044;3.766;2023-08-17T02:32:41;101997.48;;;18.57;100.00
63281;BME280;49406;51.044;3.766;2023-08-17T02:35:16;101995.36;;;18.57;100.00
63281;BME280;49406;51.044;3.766;2023-08-17T02:37:50;101995.89;;;18.55;100.00
63281;BME280;49406;51.044;3.766;2023-08-17T02:40:25;101991.78;;;18.60;100.00
63281;BME280;49406;51.044;3.766;2023-08-17T02:43:00;101993.55;;;18.63;100.00
63281;BME280;49406;51.044;3.766;2023-08-17T02:45:36;101997.10;;;18.63;100.00
63281;BME280;49406;51.044;3.766;2023-08-17T02:48:11;101998.69;;;18.65;100.00
63281;BME280;49406;51.044;3.766;2023-08-17T02:50:46;101996.92;;;18.67;100.00
63281;BME280;49406;51.044;3.766;2023-08-17T02:53:20;101989.31;;;18.64;100.00
63281;BME280;49406;51.044;3.766;2023-08-17T02:55:55;101985.56;;;18.61;100.00
63281;BME280;49406;51.044;3.766;2023-08-17T02:58:30;101985.77;;;18.59;100.00
63281;BME280;49406;51.044;3.766;2023-08-17T03:01:05;101987.35;;;18.61;100.00
63281;BME280;49406;51.044;3.766;2023-08-17T03:03:40;101989.88;;;18.55;100.00
63281;BME280;49406;51.044;3.766;2023-08-17T03:06:14;101985.50;;;18.46;100.00
63281;BME280;49406;51.044;3.766;2023-08-17T03:08:49;101984.52;;;18.34;100.00
63281;BME280;49406;51.044;3.766;2023-08-17T03:11:25;101984.92;;;18.24;100.00
63281;BME280;49406;51.044;3.766;2023-08-17T03:14:00;101985.16;;;18.16;100.00
63281;BME280;49406;51.044;3.766;2023-08-17T03:16:35;101980.04;;;18.14;100.00
63281;BME280;49406;51.044;3.766;2023-08-17T03:19:09;101980.05;;;18.08;100.00
63281;BME280;49406;51.044;3.766;2023-08-17T03:21:45;101976.20;;;17.99;100.00
63281;BME280;49406;51.044;3.766;2023-08-17T03:24:20;101978.34;;;17.93;100.00
63281;BME280;49406;51.044;3.766;2023-08-17T03:26:55;101977.67;;;17.86;100.00
63281;BME280;49406;51.044;3.766;2023-08-17T03:29:29;101980.70;;;17.79;100.00
63281;BME280;49406;51.044;3.766;2023-08-17T03:32:05;101984.27;;;17.69;100.00
63281;BME280;49406;51.044;3.766;2023-08-17T03:34:40;101986.55;;;17.63;100.00
63281;BME280;49406;51.044;3.766;2023-08-17T03:37:14;101985.14;;;17.64;100.00
63281;BME280;49406;51.044;3.766;2023-08-17T03:39:49;101992.21;;;17.60;100.00
63281;BME280;49406;51.044;3.766;2023-08-17T03:42:23;101993.48;;;17.53;100.00
63281;BME280;49406;51.044;3.766;2023-08-17T03:44:58;101991.73;;;17.49;100.00
63281;BME280;49406;51.044;3.766;2023-08-17T03:47:33;101992.60;;;17.44;100.00
63281;BME280;49406;51.044;3.766;2023-08-17T03:50:09;101993.50;;;17.40;100.00
63281;BME280;49406;51.044;3.766;2023-08-17T03:52:44;101995.47;;;17.34;100.00
63281;BME280;49406;51.044;3.766;2023-08-17T03:55:19;101996.34;;;17.30;100.00
63281;BME280;49406;51.044;3.766;2023-08-17T03:57:54;101992.13;;;17.30;100.00
63281;BME280;49406;51.044;3.766;2023-08-17T04:00:28;101997.41;;;17.33;100.00
63281;BME280;49406;51.044;3.766;2023-08-17T04:03:04;101997.24;;;17.31;100.00
63281;BME280;49406;51.044;3.766;2023-08-17T04:05:39;101998.64;;;17.30;100.00
63281;BME280;49406;51.044;3.766;2023-08-17T04:08:13;101998.81;;;17.27;100.00
63281;BME280;49406;51.044;3.766;2023-08-17T04:10:48;102000.77;;;17.25;100.00
63281;BME280;49406;51.044;3.766;2023-08-17T04:13:22;101996.02;;;17.17;100.00
63281;BME280;49406;51.044;3.766;2023-08-17T04:15:57;102000.95;;;17.13;100.00
63281;BME280;49406;51.044;3.766;2023-08-17T04:18:32;101997.95;;;17.13;100.00
63281;BME280;49406;51.044;3.766;2023-08-17T04:21:07;102005.20;;;17.18;100.00
63281;BME280;49406;51.044;3.766;2023-08-17T04:23:41;102005.38;;;17.17;100.00
63281;BME280;49406;51.044;3.766;2023-08-17T04:26:16;102006.79;;;17.12;100.00
63281;BME280;49406;51.044;3.766;2023-08-17T04:28:51;102005.19;;;17.08;100.00
63281;BME280;49406;51.044;3.766;2023-08-17T04:31:25;102005.02;;;17.04;100.00
63281;BME280;49406;51.044;3.766;2023-08-17T04:34:00;102006.45;;;17.01;100.00
63281;BME280;49406;51.044;3.766;2023-08-17T04:36:35;102004.32;;;16.95;100.00
63281;BME280;49406;51.044;3.766;2023-08-17T04:39:09;102005.20;;;16.92;100.00
63281;BME280;49406;51.044;3.766;2023-08-17T04:41:44;102006.79;;;16.85;100.00
63281;BME280;49406;51.044;3.766;2023-08-17T04:44:19;102006.44;;;16.85;100.00
63281;BME280;49406;51.044;3.766;2023-08-17T04:46:53;102011.55;;;16.87;100.00
63281;BME280;49406;51.044;3.766;2023-08-17T04:49:28;102008.55;;;16.83;100.00
63281;BME280;49406;51.044;3.766;2023-08-17T04:52:03;102006.44;;;16.82;100.00
63281;BME280;49406;51.044;3.766;2023-08-17T04:54:38;101997.42;;;16.81;100.00
63281;BME280;49406;51.044;3.766;2023-08-17T04:57:12;101994.59;;;16.79;100.00
63281;BME280;49406;51.044;3.766;2023-08-17T04:59:47;101995.48;;;16.79;100.00
63281;BME280;49406;51.044;3.766;2023-08-17T05:02:21;101993.35;;;16.74;100.00
63281;BME280;49406;51.044;3.766;2023-08-17T05:04:56;101992.64;;;16.71;100.00
63281;BME280;49406;51.044;3.766;2023-08-17T05:07:32;101986.63;;;16.73;100.00
63281;BME280;49406;51.044;3.766;2023-08-17T05:10:07;101985.59;;;16.81;100.00
63281;BME280;49406;51.044;3.766;2023-08-17T05:12:42;101989.65;;;16.86;100.00
63281;BME280;49406;51.044;3.766;2023-08-17T05:15:17;101992.11;;;16.89;100.00
63281;BME280;49406;51.044;3.766;2023-08-17T05:17:52;101994.41;;;16.93;100.00
63281;BME280;49406;51.044;3.766;2023-08-17T05:20:26;101993.53;;;16.92;100.00
63281;BME280;49406;51.044;3.766;2023-08-17T05:23:01;101996.89;;;16.92;100.00
63281;BME280;49406;51.044;3.766;2023-08-17T05:25:36;102002.89;;;16.94;100.00
63281;BME280;49406;51.044;3.766;2023-08-17T05:28:11;102007.85;;;17.04;100.00
63281;BME280;49406;51.044;3.766;2023-08-17T05:30:45;102008.39;;;17.13;100.00
63281;BME280;49406;51.044;3.766;2023-08-17T05:33:20;102008.20;;;17.20;100.00
63281;BME280;49406;51.044;3.766;2023-08-17T05:35:56;102002.70;;;17.25;100.00
63281;BME280;49406;51.044;3.766;2023-08-17T05:38:31;102004.64;;;17.29;100.00
63281;BME280;49406;51.044;3.766;2023-08-17T05:41:05;102009.23;;;17.29;100.00
63281;BME280;49406;51.044;3.766;2023-08-17T05:43:40;102007.48;;;17.31;100.00
63281;BME280;49406;51.044;3.766;2023-08-17T05:46:14;102006.25;;;17.35;100.00
63281;BME280;49406;51.044;3.766;2023-08-17T05:48:49;102003.75;;;17.44;100.00
63281;BME280;49406;51.044;3.766;2023-08-17T05:51:23;102004.09;;;17.53;100.00
63281;BME280;49406;51.044;3.766;2023-08-17T05:53:58;102007.95;;;17.62;100.00
63281;BME280;49406;51.044;3.766;2023-08-17T05:56:33;102013.27;;;17.75;100.00
63281;BME280;49406;51.044;3.766;2023-08-17T05:59:07;102014.48;;;17.83;100.00
63281;BME280;49406;51.044;3.766;2023-08-17T06:01:42;102016.56;;;17.93;100.00
63281;BME280;49406;51.044;3.766;2023-08-17T06:04:16;102015.64;;;18.03;100.00
63281;BME280;49406;51.044;3.766;2023-08-17T06:06:51;102015.92;;;18.20;100.00
63281;BME280;49406;51.044;3.766;2023-08-17T06:09:26;102020.83;;;18.31;100.00
63281;BME280;49406;51.044;3.766;2023-08-17T06:12:00;102023.09;;;18.38;100.00
63281;BME280;49406;51.044;3.766;2023-08-17T06:14:35;102021.61;;;18.50;100.00
63281;BME280;49406;51.044;3.766;2023-08-17T06:17:10;102023.58;;;18.78;100.00
63281;BME280;49406;51.044;3.766;2023-08-17T06:19:44;102021.30;;;19.21;100.00
63281;BME280;49406;51.044;3.766;2023-08-17T06:22:19;102022.36;;;19.61;100.00
63281;BME280;49406;51.044;3.766;2023-08-17T06:24:54;102019.33;;;19.78;100.00
63281;BME280;49406;51.044;3.766;2023-08-17T06:27:28;102018.77;;;19.81;100.00
63281;BME280;49406;51.044;3.766;2023-08-17T06:30:03;102022.48;;;19.80;100.00
63281;BME280;49406;51.044;3.766;2023-08-17T06:32:38;102014.98;;;19.86;100.00
63281;BME280;49406;51.044;3.766;2023-08-17T06:35:12;102009.99;;;20.02;100.00
63281;BME280;49406;51.044;3.766;2023-08-17T06:37:47;102007.77;;;20.23;100.00
63281;BME280;49406;51.044;3.766;2023-08-17T06:40:21;102011.31;;;20.37;100.00
63281;BME280;49406;51.044;3.766;2023-08-17T06:42:56;102015.70;;;20.42;100.00
63281;BME280;49406;51.044;3.766;2023-08-17T06:45:32;102013.02;;;20.45;100.00
63281;BME280;49406;51.044;3.766;2023-08-17T06:48:07;102012.77;;;20.73;100.00
63281;BME280;49406;51.044;3.766;2023-08-17T06:50:42;102015.50;;;21.13;99.88
63281;BME280;49406;51.044;3.766;2023-08-17T06:53:16;102016.45;;;21.42;97.44
63281;BME280;49406;51.044;3.766;2023-08-17T06:55:51;102018.59;;;21.52;97.19
63281;BME280;49406;51.044;3.766;2023-08-17T06:58:26;102018.32;;;21.56;95.75
63281;BME280;49406;51.044;3.766;2023-08-17T07:01:01;102015.23;;;21.59;95.00
63281;BME280;49406;51.044;3.766;2023-08-17T07:03:35;102018.15;;;21.73;95.85
63281;BME280;49406;51.044;3.766;2023-08-17T07:06:11;102023.61;;;21.87;92.54
63281;BME280;49406;51.044;3.766;2023-08-17T07:08:45;102023.35;;;21.90;92.32
63281;BME280;49406;51.044;3.766;2023-08-17T07:11:20;102027.84;;;21.97;93.04
63281;BME280;49406;51.044;3.766;2023-08-17T07:13:55;102028.21;;;21.88;91.63
63281;BME280;49406;51.044;3.766;2023-08-17T07:16:30;102030.11;;;21.72;90.84
63281;BME280;49406;51.044;3.766;2023-08-17T07:19:05;102031.05;;;21.50;91.60
63281;BME280;49406;51.044;3.766;2023-08-17T07:21:40;102037.84;;;21.39;92.53
63281;BME280;49406;51.044;3.766;2023-08-17T07:24:16;102039.61;;;21.30;93.58
63281;BME280;49406;51.044;3.766;2023-08-17T07:26:50;102038.84;;;21.22;94.27
63281;BME280;49406;51.044;3.766;2023-08-17T07:29:25;102040.45;;;21.09;94.42
63281;BME280;49406;51.044;3.766;2023-08-17T07:32:00;102039.06;;;20.96;94.66
63281;BME280;49406;51.044;3.766;2023-08-17T07:34:35;102036.95;;;20.85;95.72
63281;BME280;49406;51.044;3.766;2023-08-17T07:37:10;102041.55;;;20.62;96.39
63281;BME280;49406;51.044;3.766;2023-08-17T07:39:44;102043.19;;;20.46;97.16
63281;BME280;49406;51.044;3.766;2023-08-17T07:42:19;102045.38;;;20.41;97.92
63281;BME280;49406;51.044;3.766;2023-08-17T07:44:54;102041.30;;;20.26;98.28
63281;BME280;49406;51.044;3.766;2023-08-17T07:47:28;102044.63;;;20.16;99.43
63281;BME280;49406;51.044;3.766;2023-08-17T07:50:03;102043.04;;;20.14;99.49
63281;BME280;49406;51.044;3.766;2023-08-17T07:52:38;102043.50;;;20.06;99.88
63281;BME280;49406;51.044;3.766;2023-08-17T07:55:12;102041.09;;;20.00;100.00
63281;BME280;49406;51.044;3.766;2023-08-17T07:57:47;102039.39;;;20.08;100.00
63281;BME280;49406;51.044;3.766;2023-08-17T08:00:22;102036.59;;;20.20;99.84
63281;BME280;49406;51.044;3.766;2023-08-17T08:02:56;102031.91;;;20.24;99.99
63281;BME280;49406;51.044;3.766;2023-08-17T08:05:31;102031.25;;;20.33;99.37
63281;BME280;49406;51.044;3.766;2023-08-17T08:08:06;102031.16;;;20.42;98.85
63281;BME280;49406;51.044;3.766;2023-08-17T08:10:41;102032.77;;;20.41;99.08
63281;BME280;49406;51.044;3.766;2023-08-17T08:13:15;102034.53;;;20.42;99.48
63281;BME280;49406;51.044;3.766;2023-08-17T08:15:50;102034.27;;;20.50;99.56
63281;BME280;49406;51.044;3.766;2023-08-17T08:18:25;102035.25;;;20.66;98.99
63281;BME280;49406;51.044;3.766;2023-08-17T08:20:59;102029.83;;;20.96;99.32
63281;BME280;49406;51.044;3.766;2023-08-17T08:23:34;102026.31;;;21.26;97.40
63281;BME280;49406;51.044;3.766;2023-08-17T08:26:09;102024.41;;;21.54;95.65
63281;BME280;49406;51.044;3.766;2023-08-17T08:28:44;102020.02;;;21.70;94.44
63281;BME280;49406;51.044;3.766;2023-08-17T08:31:18;102019.98;;;21.81;93.22
63281;BME280;49406;51.044;3.766;2023-08-17T08:33:52;102014.23;;;22.01;92.34
63281;BME280;49406;51.044;3.766;2023-08-17T08:36:26;102013.73;;;22.09;90.83
63281;BME280;49406;51.044;3.766;2023-08-17T08:39:01;102007.04;;;22.05;91.27
63281;BME280;49406;51.044;3.766;2023-08-17T08:41:37;101997.88;;;21.99;90.83
63281;BME280;49406;51.044;3.766;2023-08-17T08:44:12;101993.71;;;21.94;91.11
63281;BME280;49406;51.044;3.766;2023-08-17T08:46:47;101997.74;;;21.97;91.86
63281;BME280;49406;51.044;3.766;2023-08-17T08:49:24;101999.52;;;22.16;92.14
63281;BME280;49406;51.044;3.766;2023-08-17T08:51:59;101998.59;;;22.34;91.63
63281;BME280;49406;51.044;3.766;2023-08-17T08:54:39;101992.83;;;22.36;90.07
63281;BME280;49406;51.044;3.766;2023-08-17T08:57:15;101997.88;;;22.34;89.91
63281;BME280;49406;51.044;3.766;2023-08-17T08:59:50;101991.97;;;22.27;91.00
63281;BME280;49406;51.044;3.766;2023-08-17T09:02:26;101989.42;;;22.21;91.24
63281;BME280;49406;51.044;3.766;2023-08-17T09:05:01;101987.36;;;22.41;91.28
63281;BME280;49406;51.044;3.766;2023-08-17T09:07:35;101986.48;;;22.64;89.14
63281;BME280;49406;51.044;3.766;2023-08-17T09:10:12;101988.36;;;22.82;87.79
63281;BME280;49406;51.044;3.766;2023-08-17T09:12:49;101988.87;;;23.12;88.26
63281;BME280;49406;51.044;3.766;2023-08-17T09:15:22;101981.49;;;23.41;85.74
63281;BME280;49406;51.044;3.766;2023-08-17T09:17:57;101984.42;;;23.59;84.96
63281;BME280;49406;51.044;3.766;2023-08-17T09:20:39;101975.96;;;23.81;84.08
63281;BME280;49406;51.044;3.766;2023-08-17T09:23:16;101977.92;;;24.17;83.03
63281;BME280;49406;51.044;3.766;2023-08-17T09:25:53;101975.73;;;24.53;82.03
63281;BME280;49406;51.044;3.766;2023-08-17T09:28:31;101984.86;;;24.70;79.99
63281;BME280;49406;51.044;3.766;2023-08-17T09:31:05;101984.31;;;24.81;79.62
63281;BME280;49406;51.044;3.766;2023-08-17T09:33:40;101983.34;;;25.05;79.32
63281;BME280;49406;51.044;3.766;2023-08-17T09:36:15;101982.98;;;25.41;78.78
63281;BME280;49406;51.044;3.766;2023-08-17T09:38:50;101979.05;;;25.36;75.52
63281;BME280;49406;51.044;3.766;2023-08-17T09:41:25;101985.09;;;25.11;77.28
63281;BME280;49406;51.044;3.766;2023-08-17T09:43:59;101979.42;;;25.26;78.15
63281;BME280;49406;51.044;3.766;2023-08-17T09:46:34;101982.23;;;25.22;78.09
63281;BME280;49406;51.044;3.766;2023-08-17T09:49:09;101982.95;;;25.01;78.17
63281;BME280;49406;51.044;3.766;2023-08-17T09:51:45;101981.48;;;24.85;79.55
63281;BME280;49406;51.044;3.766;2023-08-17T09:54:22;101979.73;;;24.84;78.98
63281;BME280;49406;51.044;3.766;2023-08-17T09:56:57;101975.50;;;24.72;78.81
63281;BME280;49406;51.044;3.766;2023-08-17T09:59:32;101971.21;;;24.77;79.61
63281;BME280;49406;51.044;3.766;2023-08-17T10:02:14;101971.19;;;24.72;79.10
63281;BME280;49406;51.044;3.766;2023-08-17T10:04:53;101970.16;;;24.60;80.44
63281;BME280;49406;51.044;3.766;2023-08-17T10:07:30;101970.70;;;24.60;80.36
63281;BME280;49406;51.044;3.766;2023-08-17T10:10:07;101969.30;;;24.59;80.45
63281;BME280;49406;51.044;3.766;2023-08-17T10:12:47;101970.83;;;24.83;80.73
63281;BME280;49406;51.044;3.766;2023-08-17T10:15:26;101971.22;;;24.87;79.43
63281;BME280;49406;51.044;3.766;2023-08-17T10:18:12;101969.25;;;24.82;79.75
63281;BME280;49406;51.044;3.766;2023-08-17T10:21:00;101964.48;;;24.91;79.45
63281;BME280;49406;51.044;3.766;2023-08-17T10:23:36;101966.64;;;25.02;78.88
63281;BME280;49406;51.044;3.766;2023-08-17T10:26:11;101963.75;;;25.03;78.64
63281;BME280;49406;51.044;3.766;2023-08-17T10:28:47;101968.43;;;25.12;77.52
63281;BME280;49406;51.044;3.766;2023-08-17T10:31:22;101966.95;;;25.09;78.55
63281;BME280;49406;51.044;3.766;2023-08-17T10:33:57;101963.66;;;25.10;78.52
63281;BME280;49406;51.044;3.766;2023-08-17T10:36:33;101960.80;;;25.30;78.33
63281;BME280;49406;51.044;3.766;2023-08-17T10:39:22;101959.80;;;25.58;77.42
63281;BME280;49406;51.044;3.766;2023-08-17T10:41:58;101953.36;;;25.83;76.78
63281;BME280;49406;51.044;3.766;2023-08-17T10:44:45;101952.14;;;25.72;75.85
63281;BME280;49406;51.044;3.766;2023-08-17T10:47:24;101948.39;;;25.62;75.68
63281;BME280;49406;51.044;3.766;2023-08-17T10:50:02;101956.25;;;25.67;75.17
63281;BME280;49406;51.044;3.766;2023-08-17T10:52:38;101960.23;;;25.66;75.34
63281;BME280;49406;51.044;3.766;2023-08-17T10:55:13;101966.45;;;25.58;75.79
63281;BME280;49406;51.044;3.766;2023-08-17T10:57:48;101966.39;;;25.29;77.44
63281;BME280;49406;51.044;3.766;2023-08-17T11:00:31;101966.77;;;25.09;78.19
63281;BME280;49406;51.044;3.766;2023-08-17T11:03:07;101961.77;;;25.03;78.35
63281;BME280;49406;51.044;3.766;2023-08-17T11:05:44;101953.16;;;25.14;78.64
63281;BME280;49406;51.044;3.766;2023-08-17T11:08:22;101950.80;;;25.25;79.09
63281;BME280;49406;51.044;3.766;2023-08-17T11:11:03;101952.91;;;25.11;79.00
63281;BME280;49406;51.044;3.766;2023-08-17T11:13:39;101953.27;;;25.01;80.32
63281;BME280;49406;51.044;3.766;2023-08-17T11:16:16;101953.94;;;24.91;80.83
63281;BME280;49406;51.044;3.766;2023-08-17T11:18:52;101951.41;;;24.80;81.18
63281;BME280;49406;51.044;3.766;2023-08-17T11:21:30;101948.42;;;24.84;81.30
63281;BME280;49406;51.044;3.766;2023-08-17T11:24:06;101954.36;;;25.05;80.51
63281;BME280;49406;51.044;3.766;2023-08-17T11:26:42;101953.76;;;25.12;79.98
63281;BME280;49406;51.044;3.766;2023-08-17T11:29:17;101955.23;;;25.21;79.47
63281;BME280;49406;51.044;3.766;2023-08-17T11:31:52;101953.09;;;25.36;79.03
63281;BME280;49406;51.044;3.766;2023-08-17T11:34:27;101949.36;;;25.69;79.12
63281;BME280;49406;51.044;3.766;2023-08-17T11:37:02;101951.06;;;26.14;77.11
63281;BME280;49406;51.044;3.766;2023-08-17T11:39:38;101946.91;;;26.33;76.67
63281;BME280;49406;51.044;3.766;2023-08-17T11:42:12;101949.33;;;26.36;75.80
63281;BME280;49406;51.044;3.766;2023-08-17T11:44:47;101952.08;;;26.16;74.46
63281;BME280;49406;51.044;3.766;2023-08-17T11:47:22;101951.98;;;25.86;75.91
63281;BME280;49406;51.044;3.766;2023-08-17T11:50:01;101953.99;;;25.71;76.81
63281;BME280;49406;51.044;3.766;2023-08-17T11:52:36;101957.55;;;25.56;77.20
63281;BME280;49406;51.044;3.766;2023-08-17T11:55:15;101955.39;;;25.32;77.89
63281;BME280;49406;51.044;3.766;2023-08-17T11:57:50;101958.06;;;25.17;78.66
63281;BME280;49406;51.044;3.766;2023-08-17T12:00:25;101963.45;;;25.01;79.30
63281;BME280;49406;51.044;3.766;2023-08-17T12:03:00;101960.21;;;24.79;79.77
63281;BME280;49406;51.044;3.766;2023-08-17T12:05:34;101962.34;;;24.53;81.36
63281;BME280;49406;51.044;3.766;2023-08-17T12:08:09;101955.59;;;24.17;82.76
63281;BME280;49406;51.044;3.766;2023-08-17T12:10:45;101958.16;;;24.03;83.90
63281;BME280;49406;51.044;3.766;2023-08-17T12:13:20;101955.20;;;23.94;85.00
63281;BME280;49406;51.044;3.766;2023-08-17T12:16:01;101954.84;;;23.82;86.54
63281;BME280;49406;51.044;3.766;2023-08-17T12:18:37;101953.17;;;23.72;86.46
63281;BME280;49406;51.044;3.766;2023-08-17T12:21:12;101953.69;;;23.53;87.05
63281;BME280;49406;51.044;3.766;2023-08-17T12:23:46;101950.77;;;23.49;87.88
63281;BME280;49406;51.044;3.766;2023-08-17T12:26:22;101957.80;;;23.46;88.77
63281;BME280;49406;51.044;3.766;2023-08-17T12:28:57;101952.36;;;23.43;88.93
63281;BME280;49406;51.044;3.766;2023-08-17T12:31:31;101947.04;;;23.36;89.04
63281;BME280;49406;51.044;3.766;2023-08-17T12:34:06;101947.89;;;23.44;90.05
63281;BME280;49406;51.044;3.766;2023-08-17T12:36:44;101949.61;;;23.52;89.66
63281;BME280;49406;51.044;3.766;2023-08-17T12:39:18;101949.20;;;23.54;89.22
63281;BME280;49406;51.044;3.766;2023-08-17T12:41:53;101946.81;;;23.63;89.18
63281;BME280;49406;51.044;3.766;2023-08-17T12:44:28;101950.26;;;23.75;89.23
63281;BME280;49406;51.044;3.766;2023-08-17T12:47:02;101946.80;;;23.71;89.34
63281;BME280;49406;51.044;3.766;2023-08-17T12:49:36;101946.03;;;23.73;90.05
63281;BME280;49406;51.044;3.766;2023-08-17T12:52:11;101946.30;;;23.69;89.26
63281;BME280;49406;51.044;3.766;2023-08-17T12:54:46;101948.44;;;23.70;88.69
63281;BME280;49406;51.044;3.766;2023-08-17T12:57:20;101945.69;;;23.72;89.51
63281;BME280;49406;51.044;3.766;2023-08-17T12:59:55;101945.74;;;23.63;89.37
63281;BME280;49406;51.044;3.766;2023-08-17T13:02:29;101948.33;;;23.54;89.80
63281;BME280;49406;51.044;3.766;2023-08-17T13:05:04;101950.09;;;23.48;90.11
63281;BME280;49406;51.044;3.766;2023-08-17T13:07:39;101950.80;;;23.42;91.17
63281;BME280;49406;51.044;3.766;2023-08-17T13:10:13;101946.75;;;23.33;91.78
63281;BME280;49406;51.044;3.766;2023-08-17T13:12:48;101943.27;;;23.30;92.43
63281;BME280;49406;51.044;3.766;2023-08-17T13:15:26;101937.56;;;23.30;92.34
63281;BME280;49406;51.044;3.766;2023-08-17T13:18:01;101932.42;;;23.41;92.60
63281;BME280;49406;51.044;3.766;2023-08-17T13:20:36;101931.75;;;23.53;92.39
63281;BME280;49406;51.044;3.766;2023-08-17T13:23:11;101929.20;;;23.55;92.02
63281;BME280;49406;51.044;3.766;2023-08-17T13:25:46;101924.50;;;23.50;91.29
63281;BME280;49406;51.044;3.766;2023-08-17T13:28:21;101929.17;;;23.48;91.72